Nearby METAR Reports

 

KDWH - Houston/Dw Hooks, Texas, USA
Distance from station: WNW 3mi, 6km
Updated: 04/23/2019 12:53am
Partly cloudy
Partly cloudy
 Wind from SE
Wind: SE 3 mph , 6 km/h
Temperature: 70°F , 21°C
Dew Point: 66°F , 19°C
Humidity: 88%
Barometer: 30.06 inHg , 1017.9 hPa
Clouds: Partly cloudy
Visibility: 10 miles , 16 km
Cloud details: Partly cloudy 4100 ft
2019/04/23 05:53 KDWH 230553Z 14003KT 10SM SCT041 21/19 A3006 RMK AO2 SLP176 T02060189 10233 20206 402720156 50004
KIAH - Houston/Intnl, Texas, USA
Distance from station: ESE 9mi, 14km
Updated: 04/23/2019 12:53am
Overcast
Overcast
 Wind from SE
Wind: SE 8 mph , 13 km/h
Temperature: 70°F , 21°C
Dew Point: 66°F , 19°C
Humidity: 88%
Barometer: 30.06 inHg , 1017.9 hPa
Clouds: Overcast
Visibility: 10 miles , 16 km
Cloud details: Partly cloudy 1900 ft
Mostly cloudy 3700 ft
Overcast 20000 ft
2019/04/23 05:53 KIAH 230553Z 13007KT 10SM SCT019 BKN037 OVC200 21/19 A3006 RMK AO2 SLP177 T02110194 10233 20206 402670161 50002
 
KCXO - Conroe, Texas, USA
Distance from station: NNE 21mi, 34km
Updated: 04/23/2019 12:53am
Overcast
Overcast
 Wind from ESE
Wind: ESE 6 mph , 9 km/h
Temperature: 66°F , 19°C
Dew Point: 66°F , 19°C
Humidity: 100%
Barometer: 30.07 inHg , 1018.3 hPa
Clouds: Overcast
Visibility: 10 miles , 16 km
Cloud details: Overcast 1400 ft
2019/04/23 05:53 KCXO 230553Z AUTO 12005KT 10SM OVC014 19/19 A3007 RMK AO2 SLP179 T01940194 10233 20194 402720150 50005
KMCJ - Houston/Univ, Texas, USA
Distance from station: SSE 24mi, 39km
Updated: 04/23/2019 12:55am
Mostly cloudy
Mostly cloudy
 Wind from calm
Wind: Calm
Temperature: 70°F , 21°C
Dew Point: 66°F , 19°C
Humidity: 88%
Barometer: 30.05 inHg , 1017.6 hPa
Clouds: Mostly cloudy
Visibility: 10 miles , 16 km
Cloud details: Mostly cloudy 1200 ft
Mostly cloudy 3000 ft
Mostly cloudy 3400 ft
2019/04/23 05:55 KMCJ 230555Z AUTO 00000KT 10SM BKN012 BKN030 BKN034 21/19 A3005 RMK A01
 
KTME - Houston Exec, Texas, USA
Distance from station: SW 30mi, 48km
Updated: 04/23/2019 12:55am
Overcast
Overcast
 Wind from SE
Wind: SE 7 mph , 11 km/h
Temperature: 70°F , 21°C
Dew Point: 66°F , 19°C
Humidity: 88%
Barometer: 30.07 inHg , 1018.3 hPa
Clouds: Overcast
Visibility: 10 miles , 16 km
Cloud details: Few Clouds 1300 ft
Mostly cloudy 3400 ft
Overcast 4600 ft
2019/04/23 05:55 KTME 230555Z AUTO 14006KT 10SM FEW013 BKN034 OVC046 21/19 A3007 RMK AO2
KHOU - Houston/Hobby, Texas, USA
Distance from station: SSE 32mi, 51km
Updated: 04/23/2019 12:53am
Overcast
Overcast
 Wind from SE
Wind: SE 8 mph , 13 km/h
Temperature: 72°F , 22°C
Dew Point: 66°F , 19°C
Humidity: 83%
Barometer: 30.05 inHg , 1017.6 hPa
Clouds: Overcast
Visibility: 10 miles , 16 km
Cloud details: Mostly cloudy 1500 ft
Mostly cloudy 3000 ft
Mostly cloudy 4200 ft
Overcast 22000 ft
2019/04/23 05:53 KHOU 230553Z 14007KT 10SM BKN015 BKN030 BKN042 OVC220 22/19 A3005 RMK AO2 SLP182 T02170189 10239 20211 402670172 53002
 
KSGR - Houston/Sugar La, Texas, USA
Distance from station: SSW 32mi, 51km
Updated: 04/23/2019 12:53am
Overcast
Overcast
 Wind from SE
Wind: SE 9 mph , 15 km/h
Temperature: 70°F , 21°C
Dew Point: 66°F , 19°C
Humidity: 88%
Barometer: 30.05 inHg , 1017.6 hPa
Clouds: Overcast
Visibility: 10 miles , 16 km
Cloud details: Few Clouds 1100 ft
Mostly cloudy 3900 ft
Overcast 4700 ft
2019/04/23 05:53 KSGR 230553Z AUTO 13008KT 10SM FEW011 BKN039 OVC047 21/19 A3005 RMK AO2 SLP176 T02110189 10244 20211 402720183 52001
K6R3 - Cleveland Muni, Texas, USA
Distance from station: NE 36mi, 58km
Updated: 04/23/2019 12:55am
Overcast
Overcast
 Wind from S
Wind: S 6 mph , 9 km/h
Temperature: 68°F , 20°C
Dew Point: 68°F , 20°C
Humidity: 100%
Barometer: 30.08 inHg , 1018.6 hPa
Clouds: Overcast
Visibility: 10 miles , 16 km
Cloud details: Overcast 800 ft
2019/04/23 05:55 K6R3 230555Z AUTO 17005KT 10SM OVC008 20/20 A3008 RMK AO2 T01980195 10237 20191 402710130
 
KAXH - Houston/Southwst, Texas, USA
Distance from station: S 37mi, 60km
Updated: 04/23/2019 12:55am
Overcast
Overcast
 Wind from ESE
Wind: ESE 5 mph , 7 km/h
Temperature: 68°F , 20°C
Dew Point: 66°F , 19°C
Humidity: 94%
Barometer: 30.06 inHg , 1017.9 hPa
Clouds: Overcast
Visibility: 10 miles , 16 km
Cloud details: Partly cloudy 1200 ft
Mostly cloudy 2000 ft
Overcast 3200 ft
2019/04/23 05:55 KAXH 230555Z AUTO 12004KT 10SM SCT012 BKN020 OVC032 20/19 A3006 RMK AO2 T02000190 10228 20198
KEFD - Houston/Ellingto, Texas, USA
Distance from station: SSE 37mi, 60km
Updated: 04/23/2019 12:50am
Overcast
Overcast
 Wind from SE
Wind: SE 12 mph , 19 km/h
Temperature: 72°F , 22°C
Dew Point: 66°F , 19°C
Humidity: 83%
Barometer: 30.05 inHg , 1017.6 hPa
Clouds: Overcast
Visibility: 10 miles , 16 km
Cloud details: Mostly cloudy 2000 ft
Overcast 22000 ft
2019/04/23 05:50 KEFD 230550Z 13010KT 10SM BKN020 OVC220 22/19 A3005
 
KLVJ - Houston, Texas, USA
Distance from station: SSE 40mi, 64km
Updated: 04/23/2019 12:53am
Overcast
Overcast
 Wind from SE
Wind: SE 7 mph , 11 km/h
Temperature: 72°F , 22°C
Dew Point: 68°F , 20°C
Humidity: 88%
Barometer: 30.07 inHg , 1018.3 hPa
Clouds: Overcast
Visibility: 10 miles , 16 km
Cloud details: Mostly cloudy 1600 ft
Mostly cloudy 2400 ft
Overcast 4400 ft
2019/04/23 05:53 KLVJ 230553Z AUTO 13006KT 10SM BKN016 BKN024 OVC044 22/20 A3007 RMK AO2 SLP180 T02170200 10239 20217 402610172 51003
KUTS - Huntsville, Texas, USA
Distance from station: N 48mi, 78km
Updated: 04/23/2019 12:53am
Overcast
Overcast
 Wind from varies
Wind: varies 3 mph , 6 km/h
Temperature: 70°F , 21°C
Dew Point: 63°F , 17°C
Humidity: 78%
Barometer: 30.07 inHg , 1018.3 hPa
Clouds: Overcast
Visibility: 10 miles , 16 km
Cloud details: Overcast 1100 ft
2019/04/23 05:53 KUTS 230553Z AUTO VRB03KT 10SM OVC011 21/17 A3007 RMK AO2 SLP178 T02060172 10244 20206 402780172 51009